Time;durP1;ratioP1;P1;durP2;ratioP2;P2;SDS_P1;SDS_P2;PMS_P1;PMS_P2;Temp;Humidity;BMP_temperature;BMP_pressure;BME280_temperature;BME280_humidity;BME280_pressure;Samples;Min_cycle;Max_cycle;Signal;HPM_P1;HPM_P2
2022/09/26 00:01:19;;;;;;;;;;;18.60;92.80;;;;;;5039693;28;19909;-68
2022/09/26 00:03:49;;;;;;;;;;;18.60;92.80;;;;;;5039230;28;19970;-68
2022/09/26 00:06:18;;;;;;;;;;;18.60;92.70;;;;;;5038194;28;20050;-68
2022/09/26 00:08:45;;;;;;;;;;;18.60;92.80;;;;;;5038075;28;19970;-69
2022/09/26 00:11:11;;;;;;;;;;;18.60;92.80;;;;;;5037459;28;20195;-68
2022/09/26 00:13:38;;;;;;;;;;;18.50;92.70;;;;;;5038144;28;19908;-68
2022/09/26 00:16:04;;;;;;;;;;;18.60;92.80;;;;;;5037660;28;19916;-68
2022/09/26 00:18:30;;;;;;;;;;;18.50;92.70;;;;;;5037669;28;19943;-68
2022/09/26 00:21:03;;;;;;;;;;;18.50;92.70;;;;;;5038265;28;19913;-67
2022/09/26 00:23:28;;;;;;;;;;;18.50;92.70;;;;;;5038237;28;19917;-67
2022/09/26 00:25:55;;;;;;;;;;;18.50;92.70;;;;;;5039855;28;19975;-68
2022/09/26 00:28:21;;;;;;;;;;;18.50;92.70;;;;;;5039550;28;19913;-69
2022/09/26 00:30:47;;;;;;;;;;;18.50;92.70;;;;;;5039799;28;19909;-69
2022/09/26 00:33:12;;;;;;;;;;;18.50;92.70;;;;;;5040087;28;19917;-69
2022/09/26 00:35:38;;;;;;;;;;;18.50;92.70;;;;;;5040156;28;20312;-69
2022/09/26 00:38:04;;;;;;;;;;;18.50;92.70;;;;;;5040079;28;20004;-69
2022/09/26 00:40:30;;;;;;;;;;;18.50;92.70;;;;;;5041054;28;20020;-69
2022/09/26 00:42:56;;;;;;;;;;;18.50;92.60;;;;;;5040004;28;20222;-69
2022/09/26 00:45:23;;;;;;;;;;;18.50;92.90;;;;;;5038027;28;19909;-69
2022/09/26 00:47:58;;;;;;;;;;;18.40;92.60;;;;;;5038186;28;19935;-69
2022/09/26 00:50:27;;;;;;;;;;;18.40;92.70;;;;;;5039934;28;20259;-69
2022/09/26 00:52:58;;;;;;;;;;;18.40;92.60;;;;;;5038662;28;19916;-69
2022/09/26 00:55:27;;;;;;;;;;;18.40;92.60;;;;;;5040251;28;20290;-69
2022/09/26 00:57:57;;;;;;;;;;;18.40;92.70;;;;;;5039395;28;19959;-69
2022/09/26 01:00:23;;;;;;;;;;;18.40;92.70;;;;;;5039434;28;20283;-69
2022/09/26 01:02:50;;;;;;;;;;;18.40;92.70;;;;;;5038946;28;19909;-69
2022/09/26 01:05:17;;;;;;;;;;;18.40;92.70;;;;;;5039324;28;19920;-69
2022/09/26 01:07:43;;;;;;;;;;;18.40;92.70;;;;;;5038450;28;19924;-69
2022/09/26 01:10:09;;;;;;;;;;;18.40;92.70;;;;;;5039198;28;19909;-68
2022/09/26 01:12:36;;;;;;;;;;;18.40;92.70;;;;;;5038468;28;20208;-69
2022/09/26 01:15:02;;;;;;;;;;;18.40;92.70;;;;;;5038480;28;19920;-69
2022/09/26 01:17:28;;;;;;;;;;;18.40;92.70;;;;;;5038023;28;19948;-69
2022/09/26 01:20:00;;;;;;;;;;;18.40;92.70;;;;;;5038351;28;19923;-66
2022/09/26 01:22:25;;;;;;;;;;;18.30;92.60;;;;;;5037133;28;19925;-66
2022/09/26 01:25:01;;;;;;;;;;;18.40;92.60;;;;;;5035583;28;20176;-66
2022/09/26 01:27:45;;;;;;;;;;;18.30;92.60;;;;;;5033156;28;19956;-66
2022/09/26 01:30:21;;;;;;;;;;;18.30;92.60;;;;;;5033851;28;19909;-66
2022/09/26 01:32:53;;;;;;;;;;;18.30;92.60;;;;;;5044160;28;19916;-66
2022/09/26 01:35:20;;;;;;;;;;;18.30;92.60;;;;;;5038543;28;19909;-66
2022/09/26 01:38:04;;;;;;;;;;;18.30;92.60;;;;;;5033964;28;19920;-66
2022/09/26 01:40:36;;;;;;;;;;;18.30;92.50;;;;;;5034475;28;20362;-66
2022/09/26 01:43:21;;;;;;;;;;;18.30;92.50;;;;;;5034073;28;19996;-66
2022/09/26 01:45:57;;;;;;;;;;;18.30;92.80;;;;;;5035536;28;20300;-66
2022/09/26 01:48:26;;;;;;;;;;;18.30;92.50;;;;;;5035420;28;19960;-66
2022/09/26 01:50:59;;;;;;;;;;;18.30;92.50;;;;;;5036271;28;19909;-66
2022/09/26 01:53:30;;;;;;;;;;;18.30;92.50;;;;;;5034467;28;20331;-66
2022/09/26 01:56:00;;;;;;;;;;;18.30;92.50;;;;;;5035767;28;20259;-66
2022/09/26 01:58:38;;;;;;;;;;;18.30;92.50;;;;;;5036041;28;20033;-67
2022/09/26 02:01:07;;;;;;;;;;;18.30;92.50;;;;;;5038049;28;19909;-66
2022/09/26 02:03:38;;;;;;;;;;;18.30;92.50;;;;;;5037646;28;19909;-66
2022/09/26 02:06:07;;;;;;;;;;;18.20;92.40;;;;;;5038024;28;19917;-66
2022/09/26 02:08:37;;;;;;;;;;;18.30;92.50;;;;;;5037803;28;20182;-66
2022/09/26 02:11:06;;;;;;;;;;;18.30;92.50;;;;;;5037807;28;19909;-66
2022/09/26 02:13:38;;;;;;;;;;;18.30;92.50;;;;;;5037002;28;19928;-66
2022/09/26 02:16:06;;;;;;;;;;;18.30;92.50;;;;;;5037902;28;19915;-66
2022/09/26 02:18:36;;;;;;;;;;;18.20;92.70;;;;;;5037153;28;19999;-66
2022/09/26 02:21:05;;;;;;;;;;;18.30;92.50;;;;;;5053928;28;19940;-66
2022/09/26 02:23:30;;;;;;;;;;;18.30;92.50;;;;;;5035997;28;19940;-66
2022/09/26 02:25:56;;;;;;;;;;;18.20;92.40;;;;;;5035805;28;19948;-69
2022/09/26 02:28:22;;;;;;;;;;;18.20;92.40;;;;;;5036365;28;20051;-69
2022/09/26 02:30:48;;;;;;;;;;;18.20;92.40;;;;;;5036055;28;19909;-69
2022/09/26 02:33:14;;;;;;;;;;;18.20;92.40;;;;;;5035957;28;19917;-69
2022/09/26 02:35:53;;;;;;;;;;;18.20;92.40;;;;;;5036649;28;19908;-69
2022/09/26 02:38:19;;;;;;;;;;;18.20;92.40;;;;;;5036755;28;20002;-69
2022/09/26 02:40:50;;;;;;;;;;;18.20;92.40;;;;;;5054398;28;19935;-69
2022/09/26 02:43:24;;;;;;;;;;;18.20;92.40;;;;;;5037731;28;19909;-69
2022/09/26 02:46:02;;;;;;;;;;;18.20;92.40;;;;;;5036217;28;19917;-69
2022/09/26 02:48:27;;;;;;;;;;;18.20;92.40;;;;;;5036288;28;19912;-69
2022/09/26 02:51:14;;;;;;;;;;;18.20;92.40;;;;;;5035799;28;20463;-69
2022/09/26 02:53:59;;;;;;;;;;;18.20;92.40;;;;;;5035731;28;19924;-69
2022/09/26 02:56:38;;;;;;;;;;;18.20;92.40;;;;;;5018236;28;19942;-69
2022/09/26 02:59:23;;;;;;;;;;;18.20;92.40;;;;;;5037262;28;19921;-69
2022/09/26 03:02:08;;;;;;;;;;;18.20;92.40;;;;;;5035528;28;20023;-69
2022/09/26 03:04:33;;;;;;;;;;;18.20;92.40;;;;;;5034154;28;19920;-69
2022/09/26 03:07:01;;;;;;;;;;;18.20;92.40;;;;;;5034789;28;19913;-69
2022/09/26 03:09:28;;;;;;;;;;;18.20;92.40;;;;;;5035175;28;20005;-69
2022/09/26 03:11:54;;;;;;;;;;;18.20;92.40;;;;;;5037593;28;19913;-69
2022/09/26 03:14:20;;;;;;;;;;;18.20;92.50;;;;;;5038482;28;19920;-69
2022/09/26 03:16:46;;;;;;;;;;;18.20;92.50;;;;;;5036953;28;20092;-66
2022/09/26 03:19:15;;;;;;;;;;;18.10;92.40;;;;;;5039162;28;20300;-66
2022/09/26 03:21:41;;;;;;;;;;;18.20;92.50;;;;;;5038079;28;20258;-67
2022/09/26 03:24:07;;;;;;;;;;;18.10;92.40;;;;;;5037103;28;19915;-66
2022/09/26 03:26:33;;;;;;;;;;;18.10;92.40;;;;;;5037442;28;20030;-66
2022/09/26 03:28:59;;;;;;;;;;;18.10;92.40;;;;;;5037833;28;20195;-66
2022/09/26 03:31:24;;;;;;;;;;;18.10;92.40;;;;;;5036559;28;19920;-67
2022/09/26 03:33:53;;;;;;;;;;;18.10;92.40;;;;;;5036303;28;20187;-66
2022/09/26 03:36:21;;;;;;;;;;;18.10;92.40;;;;;;5035474;28;20207;-66
2022/09/26 03:38:47;;;;;;;;;;;18.10;92.40;;;;;;5036317;28;20279;-66
2022/09/26 03:41:13;;;;;;;;;;;18.10;92.40;;;;;;5036742;28;19923;-66
2022/09/26 03:43:42;;;;;;;;;;;18.10;92.40;;;;;;5037344;28;19909;-66
2022/09/26 03:46:10;;;;;;;;;;;18.10;92.40;;;;;;5037316;28;19909;-66
2022/09/26 03:48:36;;;;;;;;;;;18.10;92.40;;;;;;5037214;28;19999;-66
2022/09/26 03:51:06;;;;;;;;;;;18.10;92.40;;;;;;5038316;28;20003;-66
2022/09/26 03:53:32;;;;;;;;;;;18.10;92.50;;;;;;5038488;28;19909;-66
2022/09/26 03:56:08;;;;;;;;;;;18.10;92.50;;;;;;5038035;28;19909;-66
2022/09/26 03:58:34;;;;;;;;;;;18.10;92.50;;;;;;5037202;28;19996;-67
2022/09/26 04:01:19;;;;;;;;;;;18.10;92.50;;;;;;5036643;28;19999;-66
2022/09/26 04:03:45;;;;;;;;;;;18.10;92.50;;;;;;5037102;28;19913;-67
2022/09/26 04:06:12;;;;;;;;;;;18.10;92.50;;;;;;5036523;28;19908;-67
2022/09/26 04:08:39;;;;;;;;;;;18.10;92.50;;;;;;5036225;28;19909;-67
2022/09/26 04:11:09;;;;;;;;;;;18.10;92.50;;;;;;5034853;28;20196;-67
2022/09/26 04:13:35;;;;;;;;;;;18.10;92.50;;;;;;5033345;28;20091;-67
2022/09/26 04:16:01;;;;;;;;;;;18.10;92.50;;;;;;5035847;28;19909;-66
2022/09/26 04:18:27;;;;;;;;;;;18.10;92.50;;;;;;5035749;28;19919;-67
2022/09/26 04:20:57;;;;;;;;;;;18.10;92.50;;;;;;5034582;28;19921;-67
2022/09/26 04:23:24;;;;;;;;;;;18.10;92.80;;;;;;5034389;28;19908;-67
2022/09/26 04:25:49;;;;;;;;;;;18.10;92.50;;;;;;5036953;28;19909;-67
2022/09/26 04:28:16;;;;;;;;;;;18.10;92.50;;;;;;5054676;28;19913;-67
2022/09/26 04:30:41;;;;;;;;;;;18.10;92.50;;;;;;5035902;28;19908;-67
2022/09/26 04:33:07;;;;;;;;;;;18.00;92.50;;;;;;5036445;28;20019;-66
2022/09/26 04:35:32;;;;;;;;;;;18.10;92.50;;;;;;5036031;28;19919;-66
2022/09/26 04:37:58;;;;;;;;;;;18.00;92.50;;;;;;5033026;28;19909;-66
2022/09/26 04:40:24;;;;;;;;;;;18.10;92.50;;;;;;5032979;28;19916;-67
2022/09/26 04:42:49;;;;;;;;;;;18.00;92.50;;;;;;5034157;28;19909;-67
2022/09/26 04:45:15;;;;;;;;;;;18.10;92.60;;;;;;5035125;28;19909;-67
2022/09/26 04:47:41;;;;;;;;;;;18.00;92.70;;;;;;5036478;28;19912;-66
2022/09/26 04:50:06;;;;;;;;;;;18.00;92.70;;;;;;5036467;28;19936;-65
2022/09/26 04:52:32;;;;;;;;;;;18.00;92.80;;;;;;5035824;28;20306;-66
2022/09/26 04:54:57;;;;;;;;;;;18.00;92.90;;;;;;5035266;28;20190;-68
2022/09/26 04:57:23;;;;;;;;;;;18.10;93.10;;;;;;5033100;28;19909;-68
2022/09/26 04:59:48;;;;;;;;;;;18.10;93.20;;;;;;5030291;28;20024;-67
2022/09/26 05:02:14;;;;;;;;;;;18.10;93.40;;;;;;5031922;28;19931;-67
2022/09/26 05:04:39;;;;;;;;;;;18.00;93.40;;;;;;5030803;28;20237;-68
2022/09/26 05:07:05;;;;;;;;;;;18.00;93.50;;;;;;5028550;28;19912;-68
2022/09/26 05:09:31;;;;;;;;;;;18.10;93.70;;;;;;5029690;28;19908;-66
2022/09/26 05:11:56;;;;;;;;;;;18.10;93.80;;;;;;5030937;28;20239;-67
2022/09/26 05:14:22;;;;;;;;;;;18.00;93.80;;;;;;5030789;28;19909;-68
2022/09/26 05:16:47;;;;;;;;;;;18.00;93.80;;;;;;5029683;28;19908;-67
2022/09/26 05:19:13;;;;;;;;;;;18.00;93.80;;;;;;5028664;28;19932;-67
2022/09/26 05:21:38;;;;;;;;;;;18.10;93.80;;;;;;5031315;28;19913;-68
2022/09/26 05:26:50;;;;;;;;;;;18.10;93.90;;;;;;5046312;28;19924;-68
2022/09/26 05:29:17;;;;;;;;;;;18.10;93.90;;;;;;5028092;28;19909;-68
2022/09/26 05:31:43;;;;;;;;;;;18.10;93.90;;;;;;5028528;28;19913;-68
2022/09/26 05:34:10;;;;;;;;;;;18.10;94.00;;;;;;5030029;28;20002;-68
2022/09/26 05:36:36;;;;;;;;;;;18.10;94.00;;;;;;5030495;28;20271;-68
2022/09/26 05:39:02;;;;;;;;;;;18.10;94.00;;;;;;5029138;28;19909;-68
2022/09/26 05:41:30;;;;;;;;;;;18.10;94.00;;;;;;5031729;28;19952;-68
2022/09/26 05:43:55;;;;;;;;;;;18.10;94.00;;;;;;5033232;28;20238;-68
2022/09/26 05:46:21;;;;;;;;;;;18.10;94.00;;;;;;5027156;28;19908;-68
2022/09/26 05:48:47;;;;;;;;;;;18.10;94.00;;;;;;5027470;28;20198;-68
2022/09/26 05:51:16;;;;;;;;;;;18.10;94.10;;;;;;5027029;28;19970;-68
2022/09/26 05:53:43;;;;;;;;;;;18.10;94.10;;;;;;5027809;28;19909;-68
2022/09/26 05:56:09;;;;;;;;;;;18.10;94.10;;;;;;5027372;28;20179;-68
2022/09/26 05:58:36;;;;;;;;;;;18.10;94.10;;;;;;5027973;28;20297;-68
2022/09/26 06:01:01;;;;;;;;;;;18.10;94.10;;;;;;5027828;28;19916;-69
2022/09/26 06:03:27;;;;;;;;;;;18.10;94.10;;;;;;5029380;28;19908;-68
2022/09/26 06:05:53;;;;;;;;;;;18.20;94.10;;;;;;5028212;28;19956;-68
2022/09/26 06:08:18;;;;;;;;;;;18.20;94.10;;;;;;5029378;28;20136;-68
2022/09/26 06:10:44;;;;;;;;;;;18.20;94.00;;;;;;5031561;28;20171;-68
2022/09/26 06:13:13;;;;;;;;;;;18.30;93.90;;;;;;5030305;28;19909;-68
2022/09/26 06:15:38;;;;;;;;;;;18.30;93.80;;;;;;5030289;28;20191;-68
2022/09/26 06:18:04;;;;;;;;;;;18.40;93.70;;;;;;5028256;28;19909;-68
2022/09/26 06:20:31;;;;;;;;;;;18.40;93.60;;;;;;5027762;28;20061;-68
2022/09/26 06:22:57;;;;;;;;;;;18.50;93.50;;;;;;5027822;28;19920;-68
2022/09/26 06:25:23;;;;;;;;;;;18.60;93.20;;;;;;5029145;28;19916;-68
2022/09/26 06:27:48;;;;;;;;;;;18.70;92.90;;;;;;5028344;28;19913;-68
2022/09/26 06:30:15;;;;;;;;;;;18.70;92.60;;;;;;5027969;28;20067;-68
2022/09/26 06:32:40;;;;;;;;;;;18.70;92.50;;;;;;5025256;28;19921;-68
2022/09/26 06:35:06;;;;;;;;;;;18.70;92.60;;;;;;5027534;28;20214;-68
2022/09/26 06:37:32;;;;;;;;;;;18.70;92.70;;;;;;5028531;28;19909;-68
2022/09/26 06:39:59;;;;;;;;;;;18.60;92.80;;;;;;5029608;28;19935;-68
2022/09/26 06:42:24;;;;;;;;;;;18.60;92.90;;;;;;5029786;28;20237;-68
2022/09/26 06:44:50;;;;;;;;;;;18.60;93.00;;;;;;5030540;28;20263;-68
2022/09/26 06:47:16;;;;;;;;;;;18.60;93.00;;;;;;5034442;28;19928;-68
2022/09/26 06:49:45;;;;;;;;;;;18.60;93.10;;;;;;5032978;28;20156;-68
2022/09/26 06:52:10;;;;;;;;;;;18.60;93.10;;;;;;5032684;28;20184;-68
2022/09/26 06:54:36;;;;;;;;;;;18.60;93.00;;;;;;5032524;28;20306;-68
2022/09/26 06:57:01;;;;;;;;;;;18.60;93.10;;;;;;5031904;28;20111;-68
2022/09/26 06:59:27;;;;;;;;;;;18.60;93.00;;;;;;5032796;28;20305;-68
2022/09/26 07:01:53;;;;;;;;;;;18.60;93.00;;;;;;5030131;28;19920;-68
2022/09/26 07:04:18;;;;;;;;;;;18.60;93.00;;;;;;5032295;28;19908;-68
2022/09/26 07:06:44;;;;;;;;;;;18.60;93.00;;;;;;5030780;28;19917;-68
2022/09/26 07:09:09;;;;;;;;;;;18.60;93.00;;;;;;5033153;28;20192;-68
2022/09/26 07:11:35;;;;;;;;;;;18.60;93.00;;;;;;5032538;28;19947;-67
2022/09/26 07:14:01;;;;;;;;;;;18.60;93.00;;;;;;5032561;28;19909;-69
2022/09/26 07:16:27;;;;;;;;;;;18.60;93.00;;;;;;5033196;28;20420;-69
2022/09/26 07:18:53;;;;;;;;;;;18.60;93.00;;;;;;5031723;28;20168;-68
2022/09/26 07:21:18;;;;;;;;;;;18.60;93.00;;;;;;5032062;28;19928;-68
2022/09/26 07:23:44;;;;;;;;;;;18.60;92.90;;;;;;5033098;28;19970;-68
2022/09/26 07:26:09;;;;;;;;;;;18.60;92.90;;;;;;5031993;28;20332;-68
2022/09/26 07:28:37;;;;;;;;;;;18.60;92.90;;;;;;5034145;28;20249;-68
2022/09/26 07:31:02;;;;;;;;;;;18.60;92.90;;;;;;5033777;28;19919;-68
2022/09/26 07:33:28;;;;;;;;;;;18.60;92.90;;;;;;5034765;28;20003;-68
2022/09/26 07:35:55;;;;;;;;;;;18.60;92.90;;;;;;5034789;28;20317;-67
2022/09/26 07:38:21;;;;;;;;;;;18.60;92.80;;;;;;5033892;28;19948;-69
2022/09/26 07:40:48;;;;;;;;;;;18.60;92.80;;;;;;5034435;28;19933;-68
2022/09/26 07:43:14;;;;;;;;;;;18.60;92.80;;;;;;5032968;28;19916;-67
2022/09/26 07:51:11;;;;;;;;;;;18.60;92.70;;;;;;5061710;28;19980;-68
2022/09/26 07:53:39;;;;;;;;;;;18.60;92.60;;;;;;5036244;28;19913;-70
2022/09/26 07:56:08;;;;;;;;;;;18.60;92.60;;;;;;5033463;28;20097;-69
2022/09/26 07:58:38;;;;;;;;;;;18.70;92.50;;;;;;5033563;28;19909;-68
2022/09/26 08:01:05;;;;;;;;;;;18.70;92.50;;;;;;5031391;28;19916;-69
2022/09/26 08:03:30;;;;;;;;;;;18.70;92.50;;;;;;5032444;28;20198;-69
2022/09/26 08:05:58;;;;;;;;;;;18.70;92.40;;;;;;5031945;28;20282;-69
2022/09/26 08:08:24;;;;;;;;;;;18.70;92.40;;;;;;5032378;28;20017;-69
2022/09/26 08:10:49;;;;;;;;;;;18.70;92.40;;;;;;5032976;28;20329;-69
2022/09/26 08:13:15;;;;;;;;;;;18.70;92.40;;;;;;5030331;28;19913;-69
2022/09/26 08:15:40;;;;;;;;;;;18.70;92.40;;;;;;5029966;28;19909;-68
2022/09/26 08:18:06;;;;;;;;;;;18.70;92.40;;;;;;5031192;28;19909;-68
2022/09/26 08:20:32;;;;;;;;;;;18.70;92.40;;;;;;5028424;28;20153;-68
2022/09/26 08:22:58;;;;;;;;;;;18.70;92.40;;;;;;5028874;28;20144;-69
2022/09/26 08:25:24;;;;;;;;;;;18.70;92.30;;;;;;5029459;28;20341;-68
2022/09/26 08:27:50;;;;;;;;;;;18.70;92.40;;;;;;5030395;28;20191;-69
2022/09/26 08:30:16;;;;;;;;;;;18.70;92.40;;;;;;5030796;28;19909;-68
2022/09/26 08:32:43;;;;;;;;;;;18.70;92.30;;;;;;5031965;28;19973;-68
2022/09/26 08:35:12;;;;;;;;;;;18.70;92.30;;;;;;5033307;28;19909;-68
2022/09/26 08:37:39;;;;;;;;;;;18.70;92.30;;;;;;5033761;28;19913;-69
2022/09/26 08:40:06;;;;;;;;;;;18.70;92.20;;;;;;5032750;28;19909;-68
2022/09/26 08:42:32;;;;;;;;;;;18.70;92.30;;;;;;5032606;28;19909;-68
2022/09/26 08:44:58;;;;;;;;;;;18.70;92.20;;;;;;5032064;28;20374;-67
2022/09/26 08:47:39;;;;;;;;;;;18.60;92.30;;;;;;5034320;28;20069;-68
2022/09/26 08:50:27;;;;;;;;;;;18.60;92.30;;;;;;5032749;28;20279;-69
2022/09/26 08:53:01;;;;;;;;;;;18.60;92.30;;;;;;5031758;28;19945;-68
2022/09/26 08:55:30;;;;;;;;;;;18.60;92.30;;;;;;5032448;28;19992;-69
2022/09/26 08:58:28;;;;;;;;;;;18.60;92.30;;;;;;5031676;28;19913;-68
2022/09/26 09:00:59;;;;;;;;;;;18.60;92.30;;;;;;5020008;28;20164;-68
2022/09/26 09:03:26;;;;;;;;;;;18.60;92.30;;;;;;5028789;28;20008;-69
2022/09/26 09:05:54;;;;;;;;;;;18.60;92.30;;;;;;5029844;28;19962;-69
2022/09/26 09:08:27;;;;;;;;;;;18.60;92.30;;;;;;5031022;28;19928;-68
2022/09/26 09:11:11;;;;;;;;;;;18.60;92.30;;;;;;5032319;28;19908;-68
2022/09/26 09:13:55;;;;;;;;;;;18.60;92.20;;;;;;5028586;28;19908;-68
2022/09/26 09:16:27;;;;;;;;;;;18.70;92.20;;;;;;5028781;28;19912;-68
2022/09/26 09:18:53;;;;;;;;;;;18.70;92.10;;;;;;5030958;28;20152;-69
2022/09/26 09:21:27;;;;;;;;;;;18.70;92.10;;;;;;5029919;28;19919;-68
2022/09/26 09:24:02;;;;;;;;;;;18.70;92.10;;;;;;5030298;28;20168;-69
2022/09/26 09:26:46;;;;;;;;;;;18.70;92.10;;;;;;5030257;28;20033;-69
2022/09/26 09:29:24;;;;;;;;;;;18.70;92.00;;;;;;5029744;28;20298;-69
2022/09/26 09:31:51;;;;;;;;;;;18.70;92.00;;;;;;5031172;28;19935;-69
2022/09/26 09:34:24;;;;;;;;;;;18.70;91.90;;;;;;5030721;28;20309;-68
2022/09/26 09:36:58;;;;;;;;;;;18.70;91.90;;;;;;5031215;28;19909;-70
2022/09/26 09:39:31;;;;;;;;;;;18.70;91.90;;;;;;5031109;28;19920;-69
2022/09/26 09:42:02;;;;;;;;;;;18.70;91.80;;;;;;5030035;28;19945;-68
2022/09/26 09:44:28;;;;;;;;;;;18.70;91.90;;;;;;5028808;28;20152;-68
2022/09/26 09:46:53;;;;;;;;;;;18.70;91.90;;;;;;5028584;28;20062;-68
2022/09/26 09:49:21;;;;;;;;;;;18.70;91.80;;;;;;5029539;28;19978;-69
2022/09/26 09:52:19;;;;;;;;;;;18.70;91.90;;;;;;5027637;28;20263;-68
2022/09/26 09:54:55;;;;;;;;;;;18.70;91.90;;;;;;5006399;28;19920;-69
2022/09/26 09:57:27;;;;;;;;;;;18.70;91.90;;;;;;5029436;28;20210;-69
2022/09/26 10:00:13;;;;;;;;;;;18.70;91.80;;;;;;5047414;28;19908;-68
2022/09/26 10:03:01;;;;;;;;;;;18.70;91.80;;;;;;5029382;28;20163;-69
2022/09/26 10:05:38;;;;;;;;;;;18.80;91.80;;;;;;5028820;28;19909;-69
2022/09/26 10:08:09;;;;;;;;;;;18.80;91.80;;;;;;5029277;28;19939;-68
2022/09/26 10:10:41;;;;;;;;;;;18.80;91.80;;;;;;5029931;28;20392;-69
2022/09/26 10:13:09;;;;;;;;;;;18.80;91.80;;;;;;5027940;28;20393;-67
2022/09/26 10:15:40;;;;;;;;;;;18.70;91.80;;;;;;5027419;28;19913;-69
2022/09/26 10:18:07;;;;;;;;;;;18.80;91.80;;;;;;5028852;28;20263;-69
2022/09/26 10:20:35;;;;;;;;;;;18.80;91.80;;;;;;5028453;28;19919;-69
2022/09/26 10:23:05;;;;;;;;;;;18.80;91.60;;;;;;5028083;28;19951;-69
2022/09/26 10:25:31;;;;;;;;;;;18.80;91.60;;;;;;5029517;28;20171;-69
2022/09/26 10:27:57;;;;;;;;;;;18.90;91.50;;;;;;5029280;28;20231;-69
2022/09/26 10:30:24;;;;;;;;;;;18.90;91.40;;;;;;5029506;28;20007;-69
2022/09/26 10:32:52;;;;;;;;;;;18.90;91.30;;;;;;5029605;28;20407;-69
2022/09/26 10:35:19;;;;;;;;;;;18.90;91.20;;;;;;5030099;28;19909;-68
2022/09/26 10:37:54;;;;;;;;;;;19.00;91.20;;;;;;5027047;28;19909;-69
2022/09/26 10:43:27;;;;;;;;;;;19.10;91.00;;;;;;5047052;28;19924;-69
2022/09/26 10:46:13;;;;;;;;;;;19.10;90.80;;;;;;5028041;28;19908;-69
2022/09/26 10:48:47;;;;;;;;;;;19.10;90.80;;;;;;5028156;28;19928;-69
2022/09/26 10:51:22;;;;;;;;;;;19.10;90.80;;;;;;5026688;28;20306;-69
2022/09/26 10:53:51;;;;;;;;;;;19.10;90.90;;;;;;5026826;28;19919;-69
2022/09/26 10:56:22;;;;;;;;;;;19.10;91.00;;;;;;5028400;28;19943;-68
2022/09/26 10:58:50;;;;;;;;;;;19.10;91.00;;;;;;5028668;28;19909;-67
2022/09/26 11:01:21;;;;;;;;;;;19.10;91.10;;;;;;5028183;28;19909;-69
2022/09/26 11:03:47;;;;;;;;;;;19.00;91.20;;;;;;5028213;28;19974;-69
2022/09/26 11:06:28;;;;;;;;;;;19.00;91.20;;;;;;5027317;28;19916;-68
2022/09/26 11:09:01;;;;;;;;;;;19.00;91.30;;;;;;5027139;28;19921;-69
2022/09/26 11:11:27;;;;;;;;;;;19.00;91.40;;;;;;5026238;28;19909;-69
2022/09/26 11:14:02;;;;;;;;;;;19.00;91.50;;;;;;5024508;28;19935;-69
2022/09/26 11:16:28;;;;;;;;;;;19.00;91.50;;;;;;5023487;28;19936;-69
2022/09/26 11:19:04;;;;;;;;;;;19.00;91.50;;;;;;5025673;28;19908;-69
2022/09/26 11:21:37;;;;;;;;;;;19.00;91.40;;;;;;5024457;28;20271;-69
2022/09/26 11:24:21;;;;;;;;;;;19.00;91.40;;;;;;5026039;28;19909;-69
2022/09/26 11:26:56;;;;;;;;;;;19.00;91.30;;;;;;5027166;28;19983;-69
2022/09/26 11:29:32;;;;;;;;;;;19.10;91.20;;;;;;5026363;28;19916;-69
2022/09/26 11:31:57;;;;;;;;;;;19.10;91.00;;;;;;5030080;28;19908;-68
2022/09/26 11:34:26;;;;;;;;;;;19.20;90.90;;;;;;5030179;28;20294;-69
2022/09/26 11:36:51;;;;;;;;;;;19.20;90.70;;;;;;5029431;28;19917;-69
2022/09/26 11:39:30;;;;;;;;;;;19.30;90.40;;;;;;5027504;28;20163;-69
2022/09/26 11:42:02;;;;;;;;;;;19.40;90.20;;;;;;5029621;28;19944;-69
2022/09/26 11:44:28;;;;;;;;;;;19.40;90.00;;;;;;5028953;28;19936;-68
2022/09/26 11:47:12;;;;;;;;;;;19.50;89.60;;;;;;5027137;28;19913;-68
2022/09/26 11:49:50;;;;;;;;;;;19.50;89.30;;;;;;5030610;28;19913;-68
2022/09/26 11:52:30;;;;;;;;;;;19.50;89.00;;;;;;5032353;28;19920;-68
2022/09/26 11:54:59;;;;;;;;;;;19.60;88.60;;;;;;5027019;28;19956;-69
2022/09/26 11:57:33;;;;;;;;;;;19.70;88.20;;;;;;5027819;28;19917;-68
2022/09/26 12:00:06;;;;;;;;;;;19.70;87.70;;;;;;5029308;28;20130;-69
2022/09/26 12:02:41;;;;;;;;;;;19.70;87.40;;;;;;5028922;28;20193;-68
2022/09/26 12:05:12;;;;;;;;;;;19.70;87.40;;;;;;5027809;28;20398;-69
2022/09/26 12:07:57;;;;;;;;;;;19.70;87.50;;;;;;5026154;28;20179;-69
2022/09/26 12:10:34;;;;;;;;;;;19.70;87.50;;;;;;5029168;28;20004;-68
2022/09/26 12:13:10;;;;;;;;;;;19.70;87.60;;;;;;5029359;28;19909;-68
2022/09/26 12:15:42;;;;;;;;;;;19.60;87.60;;;;;;5028995;28;20265;-69
2022/09/26 12:18:12;;;;;;;;;;;19.60;87.90;;;;;;5030283;28;19919;-69
2022/09/26 12:20:59;;;;;;;;;;;19.60;88.50;;;;;;5031235;28;20085;-69
2022/09/26 12:23:31;;;;;;;;;;;19.60;89.40;;;;;;5031320;28;20270;-69
2022/09/26 12:26:12;;;;;;;;;;;19.60;90.00;;;;;;5031049;28;19947;-69
2022/09/26 12:28:43;;;;;;;;;;;19.60;90.10;;;;;;5030851;28;19913;-69
2022/09/26 12:31:19;;;;;;;;;;;19.60;90.20;;;;;;5031622;28;19908;-69
2022/09/26 12:34:01;;;;;;;;;;;19.60;90.10;;;;;;5030428;28;20182;-69
2022/09/26 12:36:36;;;;;;;;;;;19.70;90.10;;;;;;5048251;28;19913;-68
2022/09/26 12:39:23;;;;;;;;;;;19.70;90.10;;;;;;5029856;28;19909;-67
2022/09/26 12:41:52;;;;;;;;;;;19.70;90.10;;;;;;5022399;28;20213;-68
2022/09/26 12:44:22;;;;;;;;;;;19.70;90.10;;;;;;5028379;28;19976;-68
2022/09/26 12:47:17;;;;;;;;;;;19.70;90.10;;;;;;5026621;28;19916;-68
2022/09/26 12:49:49;;;;;;;;;;;19.70;90.10;;;;;;4991337;28;20185;-69
2022/09/26 12:52:17;;;;;;;;;;;19.60;90.10;;;;;;5028061;28;19960;-69
2022/09/26 12:54:49;;;;;;;;;;;19.60;90.20;;;;;;5027885;28;20010;-69
2022/09/26 12:57:20;;;;;;;;;;;19.60;90.40;;;;;;5028710;28;19936;-68
2022/09/26 12:59:51;;;;;;;;;;;19.50;90.50;;;;;;5028610;28;19948;-69
2022/09/26 13:02:32;;;;;;;;;;;19.50;90.60;;;;;;5028495;28;19919;-68
2022/09/26 13:05:27;;;;;;;;;;;19.50;90.70;;;;;;5028844;28;19948;-68
2022/09/26 13:07:58;;;;;;;;;;;19.40;90.70;;;;;;4992418;28;20044;-68
2022/09/26 13:10:27;;;;;;;;;;;19.40;90.80;;;;;;5031148;28;19908;-69
2022/09/26 13:13:05;;;;;;;;;;;19.40;90.90;;;;;;5048429;28;19909;-68
2022/09/26 13:15:36;;;;;;;;;;;19.40;90.90;;;;;;5028564;28;19909;-68
2022/09/26 13:18:13;;;;;;;;;;;19.30;91.00;;;;;;5029802;28;20078;-68
2022/09/26 13:20:42;;;;;;;;;;;19.30;91.20;;;;;;5028986;28;19909;-68
2022/09/26 13:23:28;;;;;;;;;;;19.30;91.30;;;;;;5028041;28;19919;-68
2022/09/26 13:26:00;;;;;;;;;;;19.20;91.30;;;;;;5028970;28;20301;-68
2022/09/26 13:28:58;;;;;;;;;;;19.20;91.40;;;;;;5029604;28;19917;-67
2022/09/26 13:31:30;;;;;;;;;;;19.20;91.50;;;;;;5013246;28;19909;-69
2022/09/26 13:34:16;;;;;;;;;;;19.20;91.50;;;;;;4943543;28;2048588;-68
2022/09/26 13:36:42;;;;;;;;;;;19.20;91.60;;;;;;5029294;28;19940;-69
2022/09/26 13:39:11;;;;;;;;;;;19.20;91.60;;;;;;5028782;28;20287;-69
2022/09/26 13:41:48;;;;;;;;;;;19.20;91.60;;;;;;5030388;28;20023;-67
2022/09/26 13:44:14;;;;;;;;;;;19.20;91.50;;;;;;5030783;28;19944;-67
2022/09/26 13:46:52;;;;;;;;;;;19.20;91.40;;;;;;5026778;28;20069;-69
2022/09/26 13:49:32;;;;;;;;;;;19.20;91.50;;;;;;5025461;28;19916;-69
2022/09/26 13:52:04;;;;;;;;;;;19.20;91.50;;;;;;5026282;28;19932;-69
2022/09/26 13:54:50;;;;;;;;;;;19.20;91.40;;;;;;5026281;28;20307;-68
2022/09/26 13:57:31;;;;;;;;;;;19.30;91.40;;;;;;5026921;28;20002;-69
2022/09/26 13:59:57;;;;;;;;;;;19.20;91.50;;;;;;5030105;28;19908;-68
2022/09/26 14:02:27;;;;;;;;;;;19.30;91.50;;;;;;5027467;28;19908;-69
2022/09/26 14:05:12;;;;;;;;;;;19.30;91.40;;;;;;5027194;28;20074;-69
2022/09/26 14:10:34;;;;;;;;;;;19.20;91.40;;;;;;5046785;28;19919;-68
2022/09/26 14:13:04;;;;;;;;;;;19.20;91.50;;;;;;5027494;28;20376;-69
2022/09/26 14:15:48;;;;;;;;;;;19.20;91.70;;;;;;5026154;28;19964;-69
2022/09/26 14:18:14;;;;;;;;;;;19.20;91.80;;;;;;5028283;28;19952;-68
2022/09/26 14:21:15;;;;;;;;;;;19.10;91.90;;;;;;5026026;28;19919;-69
2022/09/26 14:23:47;;;;;;;;;;;19.10;92.10;;;;;;4985713;28;20319;-69
2022/09/26 14:26:26;;;;;;;;;;;19.10;92.10;;;;;;5019509;28;20178;-68
2022/09/26 14:28:53;;;;;;;;;;;19.10;92.20;;;;;;5028829;28;20184;-68
2022/09/26 14:31:24;;;;;;;;;;;19.10;92.20;;;;;;5025581;28;19917;-68
2022/09/26 14:34:04;;;;;;;;;;;19.00;92.30;;;;;;5024577;28;20153;-67
2022/09/26 14:36:31;;;;;;;;;;;19.00;92.40;;;;;;5026849;28;19956;-68
2022/09/26 14:38:57;;;;;;;;;;;19.00;92.40;;;;;;5026246;28;19912;-68
2022/09/26 14:41:25;;;;;;;;;;;19.00;92.60;;;;;;5025210;28;20085;-69
2022/09/26 14:43:51;;;;;;;;;;;19.00;92.70;;;;;;5026030;28;20192;-67
2022/09/26 14:46:18;;;;;;;;;;;19.00;92.70;;;;;;5027173;28;19916;-67
2022/09/26 14:48:44;;;;;;;;;;;19.00;92.80;;;;;;5027452;28;19960;-69